Time;durP1;ratioP1;P1;durP2;ratioP2;P2;SDS_P1;SDS_P2;PMS_P1;PMS_P2;Temp;Humidity;BMP_temperature;BMP_pressure;BME280_temperature;BME280_humidity;BME280_pressure;Samples;Min_cycle;Max_cycle;Signal;HPM_P1;HPM_P2
2021/04/26 00:00:44;;;;;;;4.47;1.40;;;;;;;8.67;40.29;100242.63;2216614;40;20103;-78
2021/04/26 00:02:15;;;;;;;7.72;1.80;;;;;;;8.70;40.49;100230.88;2191665;40;20053;-77
2021/04/26 00:03:47;;;;;;;8.18;1.98;;;;;;;8.66;40.50;100240.13;2211590;40;20026;-78
2021/04/26 00:05:19;;;;;;;6.43;1.92;;;;;;;8.64;40.64;100239.38;2205722;40;20042;-78
2021/04/26 00:06:49;;;;;;;6.18;1.83;;;;;;;8.49;41.12;100239.69;2204511;40;20058;-79
2021/04/26 00:08:21;;;;;;;7.60;2.20;;;;;;;8.45;41.11;100238.22;2191012;40;20422;-79
2021/04/26 00:09:52;;;;;;;5.95;2.25;;;;;;;8.44;41.41;100241.84;2201737;40;20748;-78
2021/04/26 00:11:23;;;;;;;10.73;2.10;;;;;;;8.43;41.37;100235.69;2206264;40;20034;-78
2021/04/26 00:12:56;;;;;;;4.45;1.55;;;;;;;8.40;41.55;100229.78;2200533;40;20042;-78
2021/04/26 00:14:27;;;;;;;4.07;1.42;;;;;;;8.43;41.51;100230.34;2195563;40;20046;-79
2021/04/26 00:15:58;;;;;;;7.93;1.73;;;;;;;8.45;41.41;100227.56;2191769;40;20054;-79
2021/04/26 00:17:29;;;;;;;6.70;2.28;;;;;;;8.40;41.61;100227.94;2185005;40;20689;-78
2021/04/26 00:19:01;;;;;;;5.18;1.80;;;;;;;8.36;41.82;100225.66;2187821;40;20039;-79
2021/04/26 00:20:33;;;;;;;4.60;1.77;;;;;;;8.22;42.19;100222.28;2190294;40;20046;-78
2021/04/26 00:22:05;;;;;;;5.63;2.13;;;;;;;8.16;42.61;100212.16;2192110;40;20043;-78
2021/04/26 00:23:36;;;;;;;4.15;1.73;;;;;;;8.07;42.71;100202.25;2187118;40;20040;-79
2021/04/26 00:25:09;;;;;;;7.28;1.92;;;;;;;8.08;42.49;100206.59;2186353;40;20347;-79
2021/04/26 00:26:40;;;;;;;4.10;1.63;;;;;;;8.07;42.85;100213.75;2176843;40;20087;-78
2021/04/26 00:28:13;;;;;;;7.97;2.05;;;;;;;8.08;42.88;100201.28;2185699;40;20086;-78
2021/04/26 00:29:45;;;;;;;5.75;2.42;;;;;;;8.01;43.17;100203.59;2138187;40;20036;-79
2021/04/26 00:31:16;;;;;;;5.57;2.20;;;;;;;7.93;43.43;100206.03;2181832;40;20083;-78
2021/04/26 00:32:48;;;;;;;7.15;2.15;;;;;;;7.90;43.30;100201.81;2129199;41;20038;-78
2021/04/26 00:34:19;;;;;;;7.03;2.28;;;;;;;7.91;43.68;100195.50;2173036;41;20165;-79
2021/04/26 00:35:50;;;;;;;9.02;2.50;;;;;;;7.88;43.73;100195.75;2141605;41;20060;-79
2021/04/26 00:37:21;;;;;;;7.30;2.60;;;;;;;7.81;44.25;100192.72;2184113;40;20042;-80
2021/04/26 00:38:53;;;;;;;6.40;2.38;;;;;;;7.79;44.28;100204.47;2172467;41;20029;-78
2021/04/26 00:40:25;;;;;;;5.78;2.00;;;;;;;7.85;43.92;100197.81;2185251;40;20045;-80
2021/04/26 00:41:57;;;;;;;12.32;2.75;;;;;;;7.87;44.02;100196.72;2180550;41;20068;-81
2021/04/26 00:43:29;;;;;;;8.80;2.28;;;;;;;7.90;44.05;100212.44;2209390;40;20034;-80
2021/04/26 00:45:08;;;;;;;5.40;2.30;;;;;;;7.87;44.16;100202.03;2214761;40;20057;-79
2021/04/26 00:46:39;;;;;;;6.95;2.28;;;;;;;7.87;44.28;100202.03;2214204;40;20085;-79
2021/04/26 00:48:11;;;;;;;5.90;2.10;;;;;;;7.89;44.30;100200.09;2214756;40;20026;-78
2021/04/26 00:49:46;;;;;;;5.93;2.17;;;;;;;7.86;44.57;100188.88;2217364;40;20220;-78
2021/04/26 00:51:17;;;;;;;10.75;2.50;;;;;;;7.84;44.52;100196.13;2214610;40;20030;-79
2021/04/26 00:52:51;;;;;;;7.07;2.67;;;;;;;7.83;44.79;100184.63;2215912;40;20038;-79
2021/04/26 00:54:22;;;;;;;6.05;2.63;;;;;;;7.79;44.77;100180.53;2219684;40;20045;-78
2021/04/26 00:55:54;;;;;;;6.85;2.70;;;;;;;7.74;44.79;100180.88;2220976;40;20053;-78
2021/04/26 00:57:25;;;;;;;8.27;2.55;;;;;;;7.72;45.20;100180.16;2218061;40;20037;-78
2021/04/26 00:58:57;;;;;;;8.95;2.58;;;;;;;7.65;45.37;100182.47;2215413;40;20022;-78
2021/04/26 01:00:30;;;;;;;8.10;2.88;;;;;;;7.62;45.75;100176.53;2197490;40;20035;-77
2021/04/26 01:02:01;;;;;;;7.47;2.72;;;;;;;7.53;46.11;100175.47;2175889;40;20043;-78
2021/04/26 01:03:33;;;;;;;7.93;2.08;;;;;;;7.57;45.85;100182.22;2209587;40;20108;-78
2021/04/26 01:05:06;;;;;;;6.55;2.22;;;;;;;7.60;45.96;100182.00;2172797;40;20045;-77
2021/04/26 01:06:38;;;;;;;7.95;2.70;;;;;;;7.54;46.16;100181.63;2211430;40;20395;-78
2021/04/26 01:08:09;;;;;;;6.93;2.42;;;;;;;7.49;46.23;100179.34;2201653;40;20208;-78
2021/04/26 01:09:40;;;;;;;7.07;2.60;;;;;;;7.55;46.16;100183.31;2202804;40;20058;-78
2021/04/26 01:11:12;;;;;;;8.27;2.83;;;;;;;7.61;46.01;100175.72;2190223;40;20050;-78
2021/04/26 01:13:23;;;;;;;5.97;2.40;;;;;;;7.65;45.85;100170.97;2198374;40;20066;-78
2021/04/26 01:15:10;;;;;;;5.25;2.20;;;;;;;7.64;46.02;100170.16;2172326;40;20078;-78
2021/04/26 01:17:02;;;;;;;6.22;2.38;;;;;;;7.54;46.62;100163.88;2201030;40;20654;-78
2021/04/26 01:18:42;;;;;;;4.63;2.08;;;;;;;7.51;46.61;100165.94;2208328;40;20096;-78
2021/04/26 01:20:46;;;;;;;8.23;3.00;;;;;;;7.55;46.24;100165.56;2160362;40;20169;-78
2021/04/26 01:22:34;;;;;;;6.35;2.70;;;;;;;7.49;46.58;100163.38;2185247;40;20047;-77
2021/04/26 01:24:40;;;;;;;6.47;2.70;;;;;;;7.44;46.54;100162.91;2152282;41;20055;-78
2021/04/26 01:26:22;;;;;;;10.00;2.75;;;;;;;7.31;47.35;100163.88;2184291;40;20044;-77
2021/04/26 01:28:17;;;;;;;8.75;2.92;;;;;;;7.25;47.62;100155.53;2177531;41;20040;-77
2021/04/26 01:30:10;;;;;;;7.63;3.22;;;;;;;7.08;48.07;100159.53;2195022;40;20054;-78
2021/04/26 01:32:01;;;;;;;7.03;3.38;;;;;;;6.99;48.27;100156.59;2195027;40;20046;-78
2021/04/26 01:33:37;;;;;;;7.53;2.95;;;;;;;6.95;48.52;100155.16;2191764;40;20035;-78
2021/04/26 01:35:12;;;;;;;7.57;3.50;;;;;;;6.98;48.50;100146.94;2156545;40;20054;-78
2021/04/26 01:36:44;;;;;;;6.03;3.40;;;;;;;6.96;48.64;100142.69;2198006;40;20056;-77
2021/04/26 01:38:20;;;;;;;12.32;3.63;;;;;;;6.93;48.68;100140.28;2203606;40;20049;-78
2021/04/26 01:39:53;;;;;;;7.95;3.38;;;;;;;6.86;48.95;100132.78;2218242;40;20385;-78
2021/04/26 01:41:26;;;;;;;10.18;3.78;;;;;;;6.84;48.84;100140.03;2222142;40;20112;-78
2021/04/26 01:43:00;;;;;;;7.05;3.10;;;;;;;6.84;49.00;100131.22;2219694;40;20021;-78
2021/04/26 01:44:32;;;;;;;7.95;3.63;;;;;;;6.84;48.94;100133.88;2227187;40;20293;-77
2021/04/26 01:46:06;;;;;;;7.65;3.58;;;;;;;6.78;49.24;100134.34;2218848;40;20085;-78
2021/04/26 01:47:40;;;;;;;9.27;3.92;;;;;;;6.74;49.27;100132.88;2215900;40;20053;-77
2021/04/26 01:49:12;;;;;;;10.10;3.53;;;;;;;6.70;49.39;100121.66;2220671;40;20044;-78
2021/04/26 01:50:45;;;;;;;8.10;3.40;;;;;;;6.65;49.60;100116.69;2225664;40;20597;-78
2021/04/26 01:52:16;;;;;;;8.48;3.50;;;;;;;6.63;49.81;100126.56;2219657;40;20048;-78
2021/04/26 01:53:49;;;;;;;6.30;3.33;;;;;;;6.60;49.87;100121.50;2186743;40;20038;-77
2021/04/26 01:55:22;;;;;;;7.32;3.17;;;;;;;6.62;49.62;100116.91;2214518;40;20040;-77
2021/04/26 01:56:55;;;;;;;8.43;3.42;;;;;;;6.64;49.84;100117.66;2218625;40;20580;-77
2021/04/26 01:58:28;;;;;;;8.57;3.80;;;;;;;6.59;49.74;100114.50;2221342;40;20049;-77
2021/04/26 02:00:01;;;;;;;7.70;3.33;;;;;;;6.57;49.70;100116.44;2218036;40;20029;-77
2021/04/26 02:01:33;;;;;;;9.32;3.53;;;;;;;6.48;49.98;100114.47;2220510;40;20029;-77
2021/04/26 02:03:08;;;;;;;6.82;3.25;;;;;;;6.49;49.96;100119.66;2219506;40;20052;-78
2021/04/26 02:04:41;;;;;;;7.30;3.40;;;;;;;6.55;49.80;100116.56;2209043;40;20127;-78
2021/04/26 02:06:13;;;;;;;7.80;3.40;;;;;;;6.60;49.61;100116.19;2216745;40;20034;-77
2021/04/26 02:07:48;;;;;;;6.55;3.22;;;;;;;6.64;49.42;100112.34;2214458;40;20054;-77
2021/04/26 02:09:20;;;;;;;7.70;3.08;;;;;;;6.68;49.25;100113.81;2217373;40;20041;-78
2021/04/26 02:10:51;;;;;;;6.97;2.70;;;;;;;6.63;49.61;100107.16;2198388;40;20074;-78
2021/04/26 02:12:23;;;;;;;9.70;3.83;;;;;;;6.62;49.69;100111.59;2223424;40;20032;-78
2021/04/26 02:13:55;;;;;;;6.38;3.13;;;;;;;6.61;49.62;100106.41;2193603;40;20031;-78
2021/04/26 02:15:31;;;;;;;6.75;3.03;;;;;;;6.67;49.33;100111.25;2216201;40;20045;-79
2021/04/26 02:17:03;;;;;;;5.70;2.85;;;;;;;6.68;49.48;100119.13;2215311;40;20021;-77
2021/04/26 02:18:36;;;;;;;8.30;2.88;;;;;;;6.71;49.13;100110.88;2218714;40;20036;-78
2021/04/26 02:20:09;;;;;;;6.55;2.75;;;;;;;6.73;49.14;100102.81;2195627;40;20045;-78
2021/04/26 02:21:41;;;;;;;4.78;2.67;;;;;;;6.72;48.83;100103.78;2215330;40;20029;-78
2021/04/26 02:23:14;;;;;;;6.85;2.95;;;;;;;6.71;49.27;100108.22;2214060;40;20045;-78
2021/04/26 02:24:45;;;;;;;7.13;3.25;;;;;;;6.72;48.94;100104.59;2215600;40;20044;-77
2021/04/26 02:26:17;;;;;;;7.80;3.17;;;;;;;6.73;48.95;100105.47;2219925;40;20052;-78
2021/04/26 02:27:48;;;;;;;6.72;2.85;;;;;;;6.71;49.12;100105.56;2223479;40;20090;-77
2021/04/26 02:29:20;;;;;;;6.53;3.10;;;;;;;6.75;49.14;100105.34;2216679;40;20033;-78
2021/04/26 02:30:54;;;;;;;8.65;3.20;;;;;;;6.73;49.19;100105.47;2222465;40;20553;-77
2021/04/26 02:32:29;;;;;;;9.93;3.47;;;;;;;6.70;48.93;100095.94;2214591;40;20049;-77
2021/04/26 02:34:13;;;;;;;9.75;3.75;;;;;;;6.72;49.11;100104.59;2216610;40;20040;-77
2021/04/26 02:35:47;;;;;;;9.18;3.72;;;;;;;6.68;49.18;100100.50;2186522;40;20520;-77
2021/04/26 02:37:27;;;;;;;7.10;3.22;;;;;;;6.71;49.31;100097.59;2215193;40;20427;-77
2021/04/26 02:39:04;;;;;;;7.55;3.03;;;;;;;6.72;48.96;100101.94;2216664;40;20041;-77
2021/04/26 02:40:40;;;;;;;7.93;2.95;;;;;;;6.67;49.17;100098.81;2208638;40;20038;-77
2021/04/26 02:42:14;;;;;;;9.13;3.80;;;;;;;6.68;48.93;100103.19;2217891;40;20060;-78
2021/04/26 02:43:49;;;;;;;6.57;3.25;;;;;;;6.71;48.99;100102.09;2213042;40;20045;-77
2021/04/26 02:45:23;;;;;;;5.10;2.70;;;;;;;6.72;48.80;100107.25;2209947;40;20045;-77
2021/04/26 02:47:02;;;;;;;10.27;3.38;;;;;;;6.76;48.67;100109.69;2213167;40;20385;-78
2021/04/26 02:48:33;;;;;;;8.77;2.70;;;;;;;6.75;48.77;100106.22;2218527;40;20545;-77
2021/04/26 02:50:08;;;;;;;8.48;3.67;;;;;;;6.68;48.57;100103.19;2218166;40;20053;-77
2021/04/26 02:51:39;;;;;;;11.15;3.83;;;;;;;6.58;48.94;100096.00;2212892;40;20045;-77
2021/04/26 02:53:11;;;;;;;6.18;3.03;;;;;;;6.55;48.97;100103.28;2204131;40;20050;-77
2021/04/26 02:54:45;;;;;;;9.65;3.45;;;;;;;6.50;48.99;100093.97;2217655;40;20333;-78
2021/04/26 02:56:19;;;;;;;7.20;3.70;;;;;;;6.45;49.16;100096.09;2154165;40;20045;-77
2021/04/26 02:57:53;;;;;;;7.60;3.50;;;;;;;6.39;49.40;100092.09;2212155;40;20058;-78
2021/04/26 02:59:25;;;;;;;8.00;3.85;;;;;;;6.36;49.42;100087.88;2202970;40;20038;-78
2021/04/26 03:00:57;;;;;;;7.32;3.58;;;;;;;6.32;49.47;100094.41;2197769;40;20045;-79
2021/04/26 03:02:30;;;;;;;8.30;3.40;;;;;;;6.26;49.54;100091.34;2191732;40;20037;-78
2021/04/26 03:04:04;;;;;;;7.57;3.88;;;;;;;6.28;49.56;100089.44;2213092;40;20050;-78
2021/04/26 03:05:36;;;;;;;6.82;3.30;;;;;;;6.23;49.66;100097.75;2178957;40;20380;-78
2021/04/26 03:07:08;;;;;;;10.93;4.20;;;;;;;6.19;49.77;100096.28;2197553;40;20039;-78
2021/04/26 03:08:39;;;;;;;7.55;3.72;;;;;;;6.14;49.96;100098.44;2161455;40;20045;-78
2021/04/26 03:10:15;;;;;;;8.30;3.75;;;;;;;6.12;50.32;100095.88;2215646;40;20049;-78
2021/04/26 03:11:47;;;;;;;8.70;3.28;;;;;;;6.09;50.13;100089.00;2165136;40;20547;-79
2021/04/26 03:13:20;;;;;;;8.43;4.00;;;;;;;6.08;49.96;100092.63;2186891;40;20031;-78
2021/04/26 03:14:52;;;;;;;10.02;3.80;;;;;;;6.07;49.82;100093.56;2149928;41;20044;-78
2021/04/26 03:16:25;;;;;;;8.93;3.67;;;;;;;6.05;50.06;100090.19;2199832;40;20029;-78
2021/04/26 03:17:59;;;;;;;8.20;3.67;;;;;;;6.04;49.92;100091.16;2222754;40;20041;-77
2021/04/26 03:19:31;;;;;;;11.20;4.97;;;;;;;6.05;50.02;100092.00;2192577;40;20041;-78
2021/04/26 03:21:07;;;;;;;11.95;3.58;;;;;;;6.05;49.96;100095.50;2202100;40;20042;-78
2021/04/26 03:22:40;;;;;;;7.40;3.70;;;;;;;6.08;50.00;100089.97;2204490;40;20055;-78
2021/04/26 03:24:14;;;;;;;7.20;3.53;;;;;;;6.17;49.72;100087.56;2222392;40;20036;-77
2021/04/26 03:25:46;;;;;;;7.20;3.30;;;;;;;6.21;49.33;100094.38;2157727;40;20061;-78
2021/04/26 03:27:19;;;;;;;8.82;3.90;;;;;;;6.19;49.29;100093.63;2216474;40;20424;-78
2021/04/26 03:28:52;;;;;;;6.70;3.15;;;;;;;6.18;49.24;100094.59;2206395;40;20053;-78
2021/04/26 03:30:24;;;;;;;7.13;2.83;;;;;;;6.20;49.10;100098.81;2219565;40;20041;-78
2021/04/26 03:31:56;;;;;;;8.55;3.80;;;;;;;6.27;49.01;100093.88;2197888;40;20038;-78
2021/04/26 03:33:30;;;;;;;7.72;3.38;;;;;;;6.28;48.87;100094.75;2199619;40;20046;-78
2021/04/26 03:35:02;;;;;;;9.90;3.65;;;;;;;6.24;48.94;100091.47;2213427;40;20333;-79
2021/04/26 03:36:36;;;;;;;8.57;3.83;;;;;;;6.19;48.99;100093.63;2217811;40;20057;-78
2021/04/26 03:38:07;;;;;;;7.80;4.10;;;;;;;6.16;49.16;100084.09;2220054;40;20033;-76
2021/04/26 03:39:39;;;;;;;8.57;3.70;;;;;;;6.07;49.41;100082.13;2217138;40;20467;-77
2021/04/26 03:41:12;;;;;;;4.95;2.88;;;;;;;6.03;49.58;100083.31;2212584;40;20052;-78
2021/04/26 03:42:45;;;;;;;11.70;5.38;;;;;;;6.03;49.54;100080.66;2217905;40;20101;-78
2021/04/26 03:44:18;;;;;;;7.20;3.13;;;;;;;5.98;49.54;100078.31;2216191;40;21184;-79
2021/04/26 03:45:49;;;;;;;6.45;3.53;;;;;;;6.01;49.42;100083.44;2218449;40;20041;-78
2021/04/26 03:47:20;;;;;;;7.15;3.60;;;;;;;6.02;49.38;100084.25;2210637;40;20046;-78
2021/04/26 03:48:52;;;;;;;9.10;3.92;;;;;;;6.04;49.46;100085.88;2214900;40;20037;-78
2021/04/26 03:50:24;;;;;;;11.32;3.78;;;;;;;6.02;49.45;100089.56;2198468;40;20046;-78
2021/04/26 03:51:57;;;;;;;8.98;3.58;;;;;;;6.03;49.62;100085.97;2214816;40;20026;-78
2021/04/26 03:53:28;;;;;;;10.55;4.05;;;;;;;6.02;49.50;100085.13;2159188;40;20443;-78
2021/04/26 03:55:00;;;;;;;7.97;3.55;;;;;;;6.05;49.34;100095.50;2214939;40;20049;-79
2021/04/26 03:56:32;;;;;;;9.75;3.78;;;;;;;6.09;49.15;100091.66;2152924;40;20028;-77
2021/04/26 03:58:03;;;;;;;6.22;3.30;;;;;;;6.15;49.05;100086.84;2212532;40;20029;-78
2021/04/26 03:59:34;;;;;;;8.68;3.67;;;;;;;6.13;49.15;100088.78;2216778;40;20102;-77
2021/04/26 04:01:06;;;;;;;9.88;3.83;;;;;;;6.07;49.41;100082.97;2217341;40;20401;-78
2021/04/26 04:02:37;;;;;;;8.45;3.85;;;;;;;6.07;49.54;100082.97;2218911;40;20143;-78
2021/04/26 04:04:09;;;;;;;8.00;3.90;;;;;;;6.01;49.54;100086.09;2220432;40;20048;-77
2021/04/26 04:05:41;;;;;;;8.93;3.53;;;;;;;5.93;50.09;100083.13;2223744;40;20036;-77
2021/04/26 04:07:13;;;;;;;7.43;3.67;;;;;;;5.92;49.96;100078.78;2222601;40;20054;-79
2021/04/26 04:08:44;;;;;;;10.32;3.90;;;;;;;5.84;50.33;100076.69;2207674;40;20061;-77
2021/04/26 04:10:16;;;;;;;8.50;3.20;;;;;;;5.78;50.78;100082.44;2217661;40;20044;-77
2021/04/26 04:11:47;;;;;;;9.23;3.75;;;;;;;5.75;51.00;100082.66;2216183;40;20081;-77
2021/04/26 04:13:19;;;;;;;9.65;4.03;;;;;;;5.69;51.07;100085.78;2214040;40;20405;-78
2021/04/26 04:14:50;;;;;;;10.88;4.75;;;;;;;5.62;51.48;100088.84;2218743;40;20033;-77
2021/04/26 04:16:21;;;;;;;10.68;3.75;;;;;;;5.56;51.86;100093.78;2215563;40;20038;-77
2021/04/26 04:17:53;;;;;;;9.18;3.67;;;;;;;5.51;51.87;100099.41;2221942;40;20041;-77
2021/04/26 04:19:24;;;;;;;10.38;4.28;;;;;;;5.44;52.29;100084.88;2210693;40;20037;-77
2021/04/26 04:20:55;;;;;;;9.23;4.22;;;;;;;5.38;52.41;100091.50;2205924;40;20045;-78
2021/04/26 04:22:27;;;;;;;10.00;4.38;;;;;;;5.36;52.46;100093.41;2220106;40;20407;-78
2021/04/26 04:23:58;;;;;;;9.25;4.35;;;;;;;5.38;52.59;100095.94;2222247;40;20040;-77
2021/04/26 04:25:30;;;;;;;10.98;4.07;;;;;;;5.34;52.62;100089.19;2217902;40;20029;-77
2021/04/26 04:27:00;;;;;;;10.40;4.38;;;;;;;5.31;52.92;100095.53;2223385;40;20029;-78
2021/04/26 04:28:32;;;;;;;12.35;4.97;;;;;;;5.30;52.96;100093.84;2219204;40;20112;-78
2021/04/26 04:30:06;;;;;;;10.02;4.15;;;;;;;5.23;53.21;100087.28;2196268;40;20045;-77
2021/04/26 04:31:37;;;;;;;10.20;4.22;;;;;;;5.19;53.34;100086.66;2206386;40;20070;-78
2021/04/26 04:33:09;;;;;;;8.48;4.97;;;;;;;5.13;53.40;100080.00;2211493;40;20034;-77
2021/04/26 04:34:40;;;;;;;10.05;4.43;;;;;;;5.08;53.36;100079.47;2209372;40;20124;-78
2021/04/26 04:36:12;;;;;;;9.70;4.15;;;;;;;5.04;53.74;100083.28;2215999;40;20048;-78
2021/04/26 04:37:44;;;;;;;7.85;4.10;;;;;;;5.02;53.95;100079.91;2215195;40;20080;-78
2021/04/26 04:39:15;;;;;;;8.73;4.03;;;;;;;5.03;53.87;100080.75;2212769;40;20037;-77
2021/04/26 04:40:46;;;;;;;14.82;4.50;;;;;;;5.02;53.96;100079.91;2209440;40;20045;-78
2021/04/26 04:42:17;;;;;;;12.02;4.78;;;;;;;4.99;53.93;100075.66;2211986;40;20417;-77
2021/04/26 04:43:49;;;;;;;9.38;3.97;;;;;;;4.99;53.91;100072.19;2212981;40;20045;-77
2021/04/26 04:45:20;;;;;;;11.48;4.20;;;;;;;4.97;54.04;100077.56;2217368;40;20041;-77
2021/04/26 04:46:52;;;;;;;12.93;4.63;;;;;;;4.95;54.13;100079.50;2212680;40;20056;-78
2021/04/26 04:48:23;;;;;;;14.18;4.43;;;;;;;4.95;54.14;100078.63;2217436;40;20026;-77
2021/04/26 04:49:55;;;;;;;12.93;4.55;;;;;;;4.94;54.02;100074.28;2215220;40;20061;-77
2021/04/26 04:51:26;;;;;;;10.25;4.65;;;;;;;4.96;54.19;100080.34;2210777;40;20101;-77
2021/04/26 04:52:59;;;;;;;10.18;4.30;;;;;;;4.99;54.38;100082.78;2213006;40;20045;-77
2021/04/26 04:54:30;;;;;;;15.70;5.72;;;;;;;5.00;54.15;100087.13;2210659;40;20026;-78
2021/04/26 04:56:02;;;;;;;9.77;4.50;;;;;;;5.00;54.11;100084.47;2210337;40;20499;-78
2021/04/26 04:57:33;;;;;;;8.15;4.50;;;;;;;4.97;53.74;100085.50;2211485;40;20400;-77
2021/04/26 04:59:04;;;;;;;11.65;4.97;;;;;;;4.96;53.94;100090.94;2208782;40;20064;-77
2021/04/26 05:00:35;;;;;;;14.52;4.40;;;;;;;4.97;53.90;100082.03;2210645;40;20041;-78
2021/04/26 05:02:07;;;;;;;9.80;4.50;;;;;;;4.99;53.78;100078.31;2209400;40;20041;-78
2021/04/26 05:03:38;;;;;;;15.00;5.05;;;;;;;5.06;53.55;100086.69;2211049;40;20310;-77
2021/04/26 05:05:10;;;;;;;13.30;4.47;;;;;;;5.03;53.59;100089.53;2210852;40;20232;-78
2021/04/26 05:06:41;;;;;;;8.77;4.68;;;;;;;5.05;53.66;100086.81;2210848;40;20061;-77
2021/04/26 05:08:14;;;;;;;12.20;5.07;;;;;;;4.99;53.69;100077.47;2203463;40;20410;-77
2021/04/26 05:09:44;;;;;;;7.35;4.47;;;;;;;5.06;53.76;100084.03;2208936;40;20030;-77
2021/04/26 05:11:16;;;;;;;13.60;4.72;;;;;;;5.06;53.60;100081.38;2206369;40;20137;-77
2021/04/26 05:12:47;;;;;;;9.63;4.70;;;;;;;5.12;53.62;100083.59;2207938;40;20022;-77
2021/04/26 05:14:19;;;;;;;6.90;3.97;;;;;;;5.16;53.70;100081.56;2160430;40;20042;-77
2021/04/26 05:15:51;;;;;;;8.88;4.93;;;;;;;5.18;53.18;100071.72;2198617;40;20046;-77
2021/04/26 05:17:22;;;;;;;9.63;4.30;;;;;;;5.19;53.18;100076.06;2201109;40;20054;-76
2021/04/26 05:18:56;;;;;;;9.27;4.18;;;;;;;5.29;52.95;100070.97;2204342;40;20038;-77
2021/04/26 05:20:27;;;;;;;9.77;4.78;;;;;;;5.25;52.99;100072.97;2202826;40;20038;-78
2021/04/26 05:22:00;;;;;;;8.52;4.78;;;;;;;5.28;53.07;100074.56;2205117;40;20050;-78
2021/04/26 05:23:32;;;;;;;9.77;4.78;;;;;;;5.29;53.05;100081.56;2202489;40;20469;-77
2021/04/26 05:25:05;;;;;;;10.23;4.43;;;;;;;5.29;52.98;100079.75;2204125;40;20047;-78
2021/04/26 05:26:36;;;;;;;12.20;4.50;;;;;;;5.36;52.64;100079.28;2201298;40;20038;-77
2021/04/26 05:28:08;;;;;;;10.25;4.85;;;;;;;5.35;52.35;100075.81;2205507;40;20137;-77
2021/04/26 05:29:39;;;;;;;8.93;4.90;;;;;;;5.37;52.69;100079.22;2206190;40;20031;-77
2021/04/26 05:31:11;;;;;;;9.80;4.50;;;;;;;5.46;52.20;100077.69;2207705;40;20128;-78
2021/04/26 05:32:48;;;;;;;8.75;4.00;;;;;;;5.45;52.50;100082.16;2160051;40;20113;-78
2021/04/26 05:34:19;;;;;;;11.98;4.55;;;;;;;5.47;52.36;100082.88;2191899;40;20063;-77
2021/04/26 05:35:50;;;;;;;10.07;4.65;;;;;;;5.49;52.30;100081.91;2206174;40;20038;-78
2021/04/26 05:37:21;;;;;;;8.07;4.47;;;;;;;5.54;52.25;100085.91;2203755;40;20043;-77
2021/04/26 05:38:53;;;;;;;6.85;4.25;;;;;;;5.57;51.93;100074.28;2204788;40;20034;-77
2021/04/26 05:40:25;;;;;;;8.27;4.00;;;;;;;5.63;51.80;100079.94;2198748;40;20174;-76
2021/04/26 05:41:57;;;;;;;9.00;4.32;;;;;;;5.71;51.53;100074.09;2201469;40;20411;-77
2021/04/26 05:43:28;;;;;;;9.23;5.20;;;;;;;5.71;51.50;100075.91;2175067;40;20466;-77
2021/04/26 05:44:59;;;;;;;10.18;4.43;;;;;;;5.74;51.49;100075.66;2204031;40;20038;-77
2021/04/26 05:46:31;;;;;;;6.82;4.18;;;;;;;5.83;51.14;100074.97;2209217;40;20042;-77
2021/04/26 05:48:03;;;;;;;13.25;5.00;;;;;;;5.89;50.59;100079.84;2208591;40;20053;-77
2021/04/26 05:49:34;;;;;;;12.00;5.40;;;;;;;5.88;50.58;100080.81;2204466;40;20038;-77
2021/04/26 05:51:06;;;;;;;9.68;4.35;;;;;;;5.89;50.13;100084.31;2209703;40;20030;-77
2021/04/26 05:52:37;;;;;;;9.18;4.35;;;;;;;5.99;49.95;100080.03;2203535;40;20159;-77
2021/04/26 05:54:09;;;;;;;12.07;4.72;;;;;;;6.00;50.02;100079.06;2204333;40;20034;-77
2021/04/26 05:55:40;;;;;;;8.50;4.50;;;;;;;5.98;50.25;100072.16;2205425;40;20469;-78
2021/04/26 05:57:11;;;;;;;14.85;5.13;;;;;;;6.06;50.16;100080.44;2210065;40;20093;-77
2021/04/26 05:58:43;;;;;;;9.70;4.78;;;;;;;6.12;49.85;100073.81;2208614;40;20408;-77
2021/04/26 06:00:15;;;;;;;8.02;4.60;;;;;;;6.19;49.58;100083.00;2206699;40;20026;-79
2021/04/26 06:01:47;;;;;;;10.73;4.18;;;;;;;6.22;49.02;100072.16;2198073;40;20045;-78
2021/04/26 06:03:18;;;;;;;9.68;5.43;;;;;;;6.21;48.98;100073.94;2204791;40;20034;-77
2021/04/26 06:04:49;;;;;;;11.32;4.63;;;;;;;6.22;49.29;100069.50;2208054;40;20053;-77
2021/04/26 06:06:21;;;;;;;10.70;5.05;;;;;;;6.22;49.20;100069.50;2207726;40;20046;-77
2021/04/26 06:07:52;;;;;;;9.57;4.70;;;;;;;6.25;49.10;100077.22;2200892;40;20401;-77
2021/04/26 06:09:24;;;;;;;9.75;5.47;;;;;;;6.26;48.99;100065.63;2217235;40;20029;-78
2021/04/26 06:10:56;;;;;;;9.82;4.55;;;;;;;6.24;48.95;100078.19;2174320;40;20110;-78
2021/04/26 06:12:27;;;;;;;10.32;4.50;;;;;;;6.29;48.68;100073.38;2178932;41;20060;-78
2021/04/26 06:13:58;;;;;;;8.82;4.72;;;;;;;6.31;48.74;100076.78;2188859;40;20036;-78
2021/04/26 06:15:30;;;;;;;9.48;4.70;;;;;;;6.44;48.45;100078.47;2216549;40;20115;-77
2021/04/26 06:17:01;;;;;;;9.13;4.18;;;;;;;6.38;48.53;100082.44;2166868;40;20044;-77
2021/04/26 06:18:32;;;;;;;9.05;4.68;;;;;;;6.43;48.71;100076.78;2213603;40;20114;-77
2021/04/26 06:20:05;;;;;;;8.95;4.63;;;;;;;6.46;48.60;100077.41;2208365;40;20061;-78
2021/04/26 06:21:36;;;;;;;11.05;5.13;;;;;;;6.49;48.40;100086.94;2211362;40;20048;-77
2021/04/26 06:23:08;;;;;;;7.10;4.57;;;;;;;6.52;48.50;100082.25;2208231;40;20444;-78
2021/04/26 06:24:40;;;;;;;10.13;4.55;;;;;;;6.62;48.15;100081.53;2210102;40;20045;-78
2021/04/26 06:26:12;;;;;;;8.45;3.95;;;;;;;6.67;48.24;100084.69;2214324;40;20515;-78
2021/04/26 06:27:43;;;;;;;10.10;4.38;;;;;;;6.77;48.00;100074.19;2215340;40;20031;-78
2021/04/26 06:29:14;;;;;;;10.65;4.90;;;;;;;6.74;47.89;100080.59;2210744;40;20703;-77
2021/04/26 06:30:47;;;;;;;8.40;4.00;;;;;;;6.75;47.92;100070.81;2210635;40;20065;-78
2021/04/26 06:32:18;;;;;;;13.32;4.15;;;;;;;6.84;47.46;100072.75;2209230;40;20030;-78
2021/04/26 06:33:49;;;;;;;8.68;4.32;;;;;;;6.85;47.71;100067.28;2211625;40;20053;-77
2021/04/26 06:35:21;;;;;;;9.93;4.40;;;;;;;6.86;47.74;100079.63;2208780;40;20057;-77
2021/04/26 06:36:52;;;;;;;7.97;4.47;;;;;;;6.97;47.52;100070.81;2214483;40;20350;-77
2021/04/26 06:38:24;;;;;;;8.30;3.80;;;;;;;7.09;47.30;100078.78;2209686;40;20468;-77
2021/04/26 06:39:55;;;;;;;8.50;4.75;;;;;;;7.10;47.18;100083.13;2208649;40;20031;-78
2021/04/26 06:41:27;;;;;;;7.82;4.72;;;;;;;7.16;46.92;100074.69;2202899;40;20076;-77
2021/04/26 06:42:58;;;;;;;9.00;4.35;;;;;;;7.11;47.02;100067.06;2211279;40;20065;-77
2021/04/26 06:44:30;;;;;;;9.40;5.35;;;;;;;7.14;47.17;100068.63;2214066;40;20045;-78
2021/04/26 06:46:02;;;;;;;9.07;4.70;;;;;;;7.17;47.13;100076.38;2213365;40;20409;-77
2021/04/26 06:47:34;;;;;;;12.82;7.25;;;;;;;7.19;46.82;100077.06;2207575;40;20299;-77
2021/04/26 06:49:05;;;;;;;9.38;4.80;;;;;;;7.24;46.47;100080.22;2210433;40;20045;-76
2021/04/26 06:50:37;;;;;;;9.85;4.70;;;;;;;7.25;46.49;100073.94;2210916;40;20041;-77
2021/04/26 06:52:08;;;;;;;9.95;4.20;;;;;;;7.26;46.57;100069.47;2210523;40;20060;-78
2021/04/26 06:53:39;;;;;;;10.75;5.95;;;;;;;7.28;46.60;100068.38;2211163;40;20048;-77
2021/04/26 06:55:11;;;;;;;11.02;5.05;;;;;;;7.28;46.59;100068.38;2215454;40;20116;-78
2021/04/26 06:56:43;;;;;;;8.10;4.57;;;;;;;7.36;46.65;100069.59;2214663;40;20054;-77
2021/04/26 06:58:14;;;;;;;9.40;4.97;;;;;;;7.47;46.41;100067.75;2213545;40;20018;-78
2021/04/26 06:59:45;;;;;;;11.65;4.43;;;;;;;7.53;46.23;100068.19;2215412;40;20053;-77
2021/04/26 07:01:16;;;;;;;9.95;4.30;;;;;;;7.62;46.01;100068.31;2214212;40;20041;-77
2021/04/26 07:02:48;;;;;;;9.45;4.38;;;;;;;7.68;46.04;100069.63;2209042;40;20042;-77
2021/04/26 07:04:19;;;;;;;10.10;4.18;;;;;;;7.73;45.79;100067.44;2207707;40;20128;-77
2021/04/26 07:05:51;;;;;;;8.98;4.47;;;;;;;7.86;45.60;100067.25;2210999;40;20441;-77
2021/04/26 07:07:24;;;;;;;9.63;4.45;;;;;;;8.03;45.15;100062.38;2208152;40;20041;-77
2021/04/26 07:08:55;;;;;;;13.68;4.85;;;;;;;8.15;44.65;100056.00;2212817;40;20042;-76
2021/04/26 07:10:28;;;;;;;9.32;4.18;;;;;;;8.16;44.69;100063.00;2212115;40;20038;-76
2021/04/26 07:11:59;;;;;;;11.10;5.10;;;;;;;8.13;44.66;100055.28;2214722;40;20033;-77
2021/04/26 07:13:30;;;;;;;8.15;4.03;;;;;;;8.23;44.58;100058.84;2218553;40;20033;-76
2021/04/26 07:15:01;;;;;;;10.68;4.43;;;;;;;8.24;44.71;100049.91;2214869;40;20268;-78
2021/04/26 07:16:34;;;;;;;8.43;4.20;;;;;;;8.31;44.61;100052.06;2211259;40;20034;-77